createdAt,value
2023-05-12T00:04:40.396Z,100946.06
2023-05-12T00:09:42.283Z,100946.88
2023-05-12T00:14:44.047Z,100951.25
2023-05-12T00:19:48.337Z,100954.72
2023-05-12T00:24:50.109Z,100954.72
2023-05-12T00:29:51.826Z,100960.22
2023-05-12T00:34:54.870Z,100964.72
2023-05-12T00:39:56.587Z,100967.28
2023-05-12T00:44:58.532Z,100966.38
2023-05-12T00:50:02.268Z,100969.91
2023-05-12T00:55:05.321Z,100969.41
2023-05-12T01:00:08.825Z,100961.16
2023-05-12T01:05:12.622Z,100973.16
2023-05-12T01:10:18.632Z,100975.59
2023-05-12T01:15:20.678Z,100972.13
2023-05-12T01:20:25.562Z,100973.22
2023-05-12T01:25:29.047Z,100979.44
2023-05-12T01:30:32.433Z,100979.47
2023-05-12T01:35:34.172Z,100979.16
2023-05-12T01:40:36.777Z,100989.09
2023-05-12T01:45:39.859Z,100996.00
2023-05-12T01:50:42.355Z,100998.53
2023-05-12T01:55:48.265Z,101007.69
2023-05-12T02:00:51.757Z,101002.69
2023-05-12T02:05:53.592Z,101002.78
2023-05-12T02:11:04.702Z,101015.88
2023-05-12T02:16:07.989Z,101017.25
2023-05-12T02:21:09.908Z,101022.44
2023-05-12T02:26:11.756Z,101023.53
2023-05-12T02:31:15.156Z,101021.94
2023-05-12T02:36:17.183Z,101025.34
2023-05-12T02:41:19.166Z,101036.94
2023-05-12T02:46:22.515Z,101055.47
2023-05-12T02:51:24.452Z,101036.56
2023-05-12T02:56:26.337Z,101041.97
2023-05-12T03:01:29.653Z,101042.22
2023-05-12T03:06:31.979Z,101037.31
2023-05-12T03:11:33.696Z,101037.28
2023-05-12T03:16:36.922Z,101039.25
2023-05-12T03:21:39.058Z,101033.09
2023-05-12T03:26:41.100Z,101029.75
2023-05-12T03:31:44.339Z,101030.69
2023-05-12T03:36:46.357Z,101041.06
2023-05-12T03:41:48.234Z,101028.91
2023-05-12T03:46:51.387Z,101032.22
2023-05-12T03:51:53.107Z,101036.31
2023-05-12T03:56:54.913Z,101041.56
2023-05-12T04:01:58.701Z,101049.59
2023-05-12T04:07:00.523Z,101045.06
2023-05-12T04:12:02.289Z,101045.88
2023-05-12T04:17:05.742Z,101055.97
2023-05-12T04:22:07.488Z,101061.19
2023-05-12T04:27:09.293Z,101056.78
2023-05-12T04:32:12.500Z,101053.97
2023-05-12T04:37:14.627Z,101060.06
2023-05-12T04:42:16.923Z,101076.31
2023-05-12T04:47:20.134Z,101074.06
2023-05-12T04:52:23.999Z,101077.03
2023-05-12T04:57:26.758Z,101086.59
2023-05-12T05:02:30.130Z,101093.56
2023-05-12T05:07:32.191Z,101097.94
2023-05-12T05:12:34.409Z,101099.03
2023-05-12T05:17:38.082Z,101108.72
2023-05-12T05:22:42.389Z,101120.91
2023-05-12T05:27:44.915Z,101112.56
2023-05-12T05:32:48.100Z,101110.00
2023-05-12T05:37:52.889Z,101120.38
2023-05-12T05:42:54.725Z,101119.25
2023-05-12T05:47:57.888Z,101129.91
2023-05-12T05:53:00.652Z,101127.50
2023-05-12T05:58:02.452Z,101137.94
2023-05-12T06:03:05.766Z,101135.69
2023-05-12T06:08:09.269Z,101133.88
2023-05-12T06:13:11.142Z,101139.50
2023-05-12T06:18:14.510Z,101144.06
2023-05-12T06:23:16.265Z,101148.13
2023-05-12T06:28:18.123Z,101149.03
2023-05-12T06:33:22.226Z,101163.47
2023-05-12T06:38:23.915Z,101171.91
2023-05-12T06:43:25.663Z,101178.28
2023-05-12T06:48:31.181Z,101180.97
2023-05-12T06:53:33.799Z,101177.16
2023-05-12T06:58:36.179Z,101175.69
2023-05-12T07:03:39.250Z,101184.94
2023-05-12T07:08:41.223Z,101188.94
2023-05-12T07:13:42.895Z,101182.72
2023-05-12T07:18:46.005Z,101173.34
2023-05-12T07:23:48.058Z,101175.81
2023-05-12T07:28:49.773Z,101177.66
2023-05-12T07:33:52.910Z,101180.56
2023-05-12T07:38:54.667Z,101184.97
2023-05-12T07:43:56.487Z,101184.91
2023-05-12T07:48:59.514Z,101184.66
2023-05-12T07:54:01.523Z,101181.88
2023-05-12T07:59:03.888Z,101176.25
2023-05-12T08:04:07.122Z,101178.56
2023-05-12T08:09:08.921Z,101170.75
2023-05-12T08:14:10.644Z,101178.03
2023-05-12T08:19:13.890Z,101185.00
2023-05-12T08:24:15.674Z,101184.38
2023-05-12T08:29:17.356Z,101178.59
2023-05-12T08:34:20.455Z,101183.16
2023-05-12T08:39:22.238Z,101190.34
2023-05-12T08:44:23.965Z,101187.19
2023-05-12T08:49:27.018Z,101184.53
2023-05-12T08:54:28.798Z,101197.50
2023-05-12T08:59:30.973Z,101195.00
2023-05-12T09:04:34.049Z,101189.13
2023-05-12T09:09:36.071Z,101189.88
2023-05-12T09:14:39.036Z,101188.28
2023-05-12T09:19:42.110Z,101187.47
2023-05-12T09:24:44.125Z,101194.47
2023-05-12T09:29:58.646Z,101187.63
2023-05-12T09:35:07.705Z,101185.84
2023-05-12T09:40:11.404Z,101193.06
2023-05-12T09:45:14.022Z,101184.47
2023-05-12T09:50:19.008Z,101186.88
2023-05-12T09:55:21.474Z,101178.94
2023-05-12T10:00:40.884Z,101175.69
2023-05-12T10:05:50.070Z,101171.56
2023-05-12T10:10:52.376Z,101177.03
2023-05-12T10:15:56.134Z,101166.16
2023-05-12T10:20:59.263Z,101170.88
2023-05-12T10:26:02.437Z,101164.19
2023-05-12T10:31:05.524Z,101156.72
2023-05-12T10:36:18.090Z,101159.97
2023-05-12T10:41:28.887Z,101152.78
2023-05-12T10:46:31.010Z,101155.53
2023-05-12T10:51:35.149Z,101162.59
2023-05-12T10:56:43.021Z,101160.59
2023-05-12T11:02:00.942Z,101152.63
2023-05-12T11:07:07.902Z,101147.13
2023-05-12T11:12:10.942Z,101146.28
2023-05-12T11:17:12.697Z,101148.00
2023-05-12T11:22:16.990Z,101143.34
2023-05-12T11:27:20.160Z,101151.38
2023-05-12T11:32:21.975Z,101138.31
2023-05-12T11:37:25.172Z,101156.16
2023-05-12T11:42:26.886Z,101155.00
2023-05-12T11:47:28.669Z,101149.66
2023-05-12T11:52:32.157Z,101149.84
2023-05-12T11:57:35.989Z,101150.19
2023-05-12T12:02:39.554Z,101158.34
2023-05-12T12:07:42.798Z,101152.69
2023-05-12T12:12:44.595Z,101159.34
2023-05-12T12:17:47.484Z,101160.63
2023-05-12T12:22:50.868Z,101167.31
2023-05-12T12:27:53.138Z,101161.25
2023-05-12T12:32:54.970Z,101158.94
2023-05-12T12:37:58.606Z,101160.91
2023-05-12T12:43:00.328Z,101159.41
2023-05-12T12:48:02.071Z,101155.00
2023-05-12T12:53:05.196Z,101146.94
2023-05-12T12:58:06.933Z,101151.44
2023-05-12T13:03:08.745Z,101163.25
2023-05-12T13:08:12.087Z,101159.25
2023-05-12T13:13:13.801Z,101165.75
2023-05-12T13:18:15.513Z,101167.31
2023-05-12T13:23:18.570Z,101163.31
2023-05-12T13:28:20.262Z,101167.81
2023-05-12T13:33:21.977Z,101153.78
2023-05-12T13:38:25.104Z,101146.09
2023-05-12T13:43:26.903Z,101148.84
2023-05-12T13:48:28.586Z,101145.41
2023-05-12T13:53:32.207Z,101147.78
2023-05-12T13:58:48.415Z,101145.81
2023-05-12T14:03:50.145Z,101139.38
2023-05-12T14:08:53.252Z,101143.63
2023-05-12T14:13:54.964Z,101144.72
2023-05-12T14:18:56.786Z,101151.31
2023-05-12T14:23:59.914Z,101154.38
2023-05-12T14:29:01.736Z,101150.66
2023-05-12T14:34:03.893Z,101134.16
2023-05-12T14:39:08.647Z,101146.81
2023-05-12T14:44:11.183Z,101154.66
2023-05-12T14:49:13.928Z,101148.81
2023-05-12T14:54:25.243Z,101147.75
2023-05-12T14:59:29.055Z,101149.91
2023-05-12T15:04:31.438Z,101145.31
2023-05-12T15:09:34.456Z,101156.50
2023-05-12T15:14:36.560Z,101134.31
2023-05-12T15:19:38.287Z,101144.53
2023-05-12T15:24:42.527Z,101151.94
2023-05-12T15:29:44.292Z,101136.59
2023-05-12T15:34:46.679Z,101135.31
2023-05-12T15:39:51.101Z,101141.72
2023-05-12T15:44:53.713Z,101151.94
2023-05-12T15:49:55.448Z,101150.44
2023-05-12T15:54:58.548Z,101158.16
2023-05-12T16:00:00.358Z,101150.91
2023-05-12T16:05:02.364Z,101157.19
2023-05-12T16:10:06.469Z,101151.56
2023-05-12T16:15:09.345Z,101146.84
2023-05-12T16:20:12.653Z,101144.19
2023-05-12T16:25:15.684Z,101142.38
2023-05-12T16:30:19.304Z,101136.22
2023-05-12T16:35:22.197Z,101129.59
2023-05-12T16:40:25.444Z,101128.03
2023-05-12T16:45:27.205Z,101134.38
2023-05-12T16:50:28.899Z,101132.66
2023-05-12T16:55:32.003Z,101132.13
2023-05-12T17:00:33.678Z,101131.56
2023-05-12T17:05:35.804Z,101143.56
2023-05-12T17:10:39.148Z,101139.84
2023-05-12T17:15:40.846Z,101142.75
2023-05-12T17:20:42.750Z,101143.00
2023-05-12T17:25:45.882Z,101156.00
2023-05-12T17:30:48.132Z,101152.81
2023-05-12T17:36:03.888Z,101161.16
2023-05-12T17:41:12.808Z,101165.84
2023-05-12T17:46:14.497Z,101162.47
2023-05-12T17:51:16.190Z,101167.34
2023-05-12T17:56:19.201Z,101166.19
2023-05-12T18:01:20.918Z,101179.75
2023-05-12T18:06:22.791Z,101174.41
2023-05-12T18:11:25.899Z,101187.38
2023-05-12T18:16:29.328Z,101183.75
2023-05-12T18:21:32.901Z,101182.19
2023-05-12T18:26:35.960Z,101195.09
2023-05-12T18:31:37.966Z,101198.97
2023-05-12T18:36:39.673Z,101205.25
2023-05-12T18:41:42.681Z,101210.13
2023-05-12T18:46:44.970Z,101205.88
2023-05-12T18:51:46.667Z,101212.22
2023-05-12T18:56:50.792Z,101223.03
2023-05-12T19:01:52.671Z,101214.97
2023-05-12T19:06:54.523Z,101219.63
2023-05-12T19:11:58.505Z,101228.16
2023-05-12T19:17:00.346Z,101235.44
2023-05-12T19:22:02.214Z,101238.50
2023-05-12T19:27:05.892Z,101244.63
2023-05-12T19:32:07.890Z,101248.56
2023-05-12T19:37:09.778Z,101253.16
2023-05-12T19:42:12.905Z,101250.78
2023-05-12T19:47:14.791Z,101254.84
2023-05-12T19:52:16.619Z,101259.06
2023-05-12T19:57:19.946Z,101262.19
2023-05-12T20:02:21.784Z,101264.72
2023-05-12T20:07:23.611Z,101266.78
2023-05-12T20:12:26.735Z,101270.84
2023-05-12T20:17:28.559Z,101270.75
2023-05-12T20:22:30.894Z,101279.75
2023-05-12T20:27:34.290Z,101286.25
2023-05-12T20:32:36.349Z,101286.88
2023-05-12T20:37:38.761Z,101287.09
2023-05-12T20:42:43.799Z,101293.97
2023-05-12T20:47:45.655Z,101297.59
2023-05-12T20:52:47.473Z,101294.13
2023-05-12T20:57:50.566Z,101292.69
2023-05-12T21:02:52.578Z,101292.25
2023-05-12T21:07:54.361Z,101293.03
2023-05-12T21:12:57.424Z,101300.81
2023-05-12T21:17:59.548Z,101302.84
2023-05-12T21:23:01.734Z,101306.06
2023-05-12T21:28:05.152Z,101306.63
2023-05-12T21:33:06.939Z,101308.25
2023-05-12T21:38:09.997Z,101316.22
2023-05-12T21:43:13.031Z,101317.38
2023-05-12T21:48:15.007Z,101318.28
2023-05-12T21:53:16.918Z,101319.31
2023-05-12T21:58:19.993Z,101316.03
2023-05-12T22:03:22.132Z,101319.28
2023-05-12T22:08:23.888Z,101323.72
2023-05-12T22:13:27.029Z,101322.03
2023-05-12T22:18:28.863Z,101321.34
2023-05-12T22:23:30.693Z,101324.81
2023-05-12T22:28:33.736Z,101322.44
2023-05-12T22:33:35.684Z,101321.59
2023-05-12T22:38:37.384Z,101332.41
2023-05-12T22:43:40.491Z,101335.03
2023-05-12T22:48:43.346Z,101339.28
2023-05-12T22:53:45.076Z,101342.00
2023-05-12T22:58:48.150Z,101342.91
2023-05-12T23:03:49.938Z,101339.16
2023-05-12T23:08:51.704Z,101336.50
2023-05-12T23:13:54.772Z,101335.56
2023-05-12T23:18:56.531Z,101332.09
2023-05-12T23:23:58.280Z,101333.41
2023-05-12T23:29:01.283Z,101330.91
2023-05-12T23:34:02.978Z,101329.09
2023-05-12T23:39:04.741Z,101327.28
2023-05-12T23:44:07.856Z,101324.78
2023-05-12T23:49:09.574Z,101325.78
2023-05-12T23:54:11.359Z,101324.28
2023-05-12T23:59:14.420Z,101321.72
